KEVW

Evanston-Uinta County Burns Field Airport

Evanston, Wyoming, USA
KEVW 171125Z 1712/1812 09006KT P6SM SCT200 FM171900 22005KT P6SM BKN100 BKN180 FM172200 24008KT P6SM BKN060 OVC090
Issued Valid From Valid To
Dec-17 @ 11:25 UTC
(58 minutes ago)
Dec-17 @ 12:00 UTC
(23 minutes ago)
Dec-18 @ 12:00 UTC
(in 24 hours)
Dec-17 @ 12:00 to Dec-17 @ 19:00
KEVW 171125Z 1712/1812 09006KT P6SM SCT200
Wind Visibility Clouds
90° at 6 knots Greater than 6 miles
  • Scattered at 20,000' AGL
From Dec-17 @ 19:00 to Dec-17 @ 22:00
FM171900 22005KT P6SM BKN100 BKN180
Wind Visibility Clouds
220° at 5 knots Greater than 6 miles
  • Broken at 10,000' AGL
  • Broken at 18,000' AGL
From Dec-17 @ 22:00 to Dec-18 @ 12:00
FM172200 24008KT P6SM BKN060 OVC090
Wind Visibility Clouds
240° at 8 knots Greater than 6 miles
  • Broken at 6,000' AGL
  • Overcast at 9,000' AGL
KEVW 171125Z 1712/1812 09006KT P6SM SCT200 FM171900 22005KT P6SM BKN100 BKN180 FM172200 24008KT P6SM BKN060 OVC090
Issued Dec-17 @ 11:25 UTC
(58 minutes ago)
Valid From Dec-17 @ 12:00 UTC
(23 minutes ago)
Valid To Dec-18 @ 12:00 UTC
(in 24 hours)
Dec-17 @ 12:00 - Dec-17 @ 19:00
Wind Visibility
90° at 6 knots Greater than 6 miles
Clouds
  • Scattered at 20,000' AGL
From Dec-17 @ 19:00 - Dec-17 @ 22:00
Wind Visibility
220° at 5 knots Greater than 6 miles
Clouds
  • Broken at 10,000' AGL
  • Broken at 18,000' AGL
From Dec-17 @ 22:00 - Dec-18 @ 12:00
Wind Visibility
240° at 8 knots Greater than 6 miles
Clouds
  • Broken at 6,000' AGL
  • Overcast at 9,000' AGL